createdAt,value
2022-10-07T00:01:13.106Z,14.92
2022-10-07T00:03:46.092Z,14.78
2022-10-07T00:06:17.675Z,14.47
2022-10-07T00:08:49.425Z,14.24
2022-10-07T00:11:26.674Z,14.54
2022-10-07T00:14:02.642Z,13.73
2022-10-07T00:16:32.028Z,14.86
2022-10-07T00:19:02.851Z,14.55
2022-10-07T00:21:31.126Z,14.75
2022-10-07T00:23:58.470Z,14.75
2022-10-07T00:26:31.940Z,14.74
2022-10-07T00:28:58.749Z,14.30
2022-10-07T00:31:30.625Z,14.64
2022-10-07T00:33:57.956Z,13.63
2022-10-07T00:36:27.635Z,14.65
2022-10-07T00:38:57.649Z,14.56
2022-10-07T00:41:29.969Z,14.51
2022-10-07T00:43:59.581Z,12.94
2022-10-07T00:46:33.853Z,14.50
2022-10-07T00:49:10.095Z,14.48
2022-10-07T00:51:39.688Z,14.15
2022-10-07T00:54:14.145Z,14.43
2022-10-07T00:56:43.845Z,13.94
2022-10-07T00:59:13.735Z,14.08
2022-10-07T01:01:43.323Z,14.40
2022-10-07T01:04:11.585Z,14.40
2022-10-07T01:06:39.333Z,13.71
2022-10-07T01:09:09.399Z,14.31
2022-10-07T01:11:57.383Z,13.76
2022-10-07T01:14:29.449Z,14.19
2022-10-07T01:17:05.051Z,14.18
2022-10-07T01:19:40.691Z,14.18
2022-10-07T01:22:31.930Z,14.18
2022-10-07T01:25:20.524Z,14.14
2022-10-07T01:28:02.618Z,14.13
2022-10-07T01:30:40.839Z,13.45
2022-10-07T01:33:13.161Z,13.58
2022-10-07T01:35:41.133Z,13.50
2022-10-07T01:38:10.059Z,14.09
2022-10-07T01:40:44.917Z,14.09
2022-10-07T01:43:16.463Z,14.09
2022-10-07T01:45:49.068Z,13.72
2022-10-07T01:48:15.909Z,13.81
2022-10-07T01:50:45.850Z,13.93
2022-10-07T01:53:15.558Z,13.95
2022-10-07T01:55:54.767Z,13.98
2022-10-07T01:58:40.679Z,14.00
2022-10-07T02:01:13.250Z,14.00
2022-10-07T02:03:39.998Z,13.92
2022-10-07T02:06:16.823Z,13.73
2022-10-07T02:08:49.703Z,13.49
2022-10-07T02:11:38.275Z,13.81
2022-10-07T02:14:13.903Z,13.51
2022-10-07T02:16:47.204Z,13.72
2022-10-07T02:19:34.680Z,13.58
2022-10-07T02:22:07.117Z,13.20
2022-10-07T02:24:35.957Z,13.77
2022-10-07T02:27:11.370Z,13.46
2022-10-07T02:29:43.481Z,13.67
2022-10-07T02:32:13.895Z,13.81
2022-10-07T02:34:43.589Z,13.81
2022-10-07T02:37:17.809Z,13.81
2022-10-07T02:39:46.823Z,13.80
2022-10-07T02:42:19.743Z,13.82
2022-10-07T02:44:51.283Z,13.55
2022-10-07T02:47:30.072Z,13.84
2022-10-07T02:50:01.348Z,13.36
2022-10-07T02:52:31.466Z,13.83
2022-10-07T02:55:07.082Z,13.83
2022-10-07T02:57:39.843Z,13.71
2022-10-07T03:00:11.171Z,13.47
2022-10-07T03:02:57.974Z,13.71
2022-10-07T03:05:34.138Z,13.67
2022-10-07T03:08:07.129Z,13.41
2022-10-07T03:10:36.373Z,13.45
2022-10-07T03:13:05.960Z,13.27
2022-10-07T03:15:42.132Z,12.88
2022-10-07T03:18:26.397Z,12.95
2022-10-07T03:20:57.707Z,13.22
2022-10-07T03:23:29.143Z,13.50
2022-10-07T03:25:59.531Z,12.90
2022-10-07T03:28:28.939Z,13.53
2022-10-07T03:31:07.250Z,12.94
2022-10-07T03:33:35.723Z,13.33
2022-10-07T03:36:02.592Z,13.61
2022-10-07T03:38:29.511Z,13.27
2022-10-07T03:40:56.194Z,13.47
2022-10-07T03:43:23.675Z,13.56
2022-10-07T03:45:53.379Z,13.54
2022-10-07T03:48:23.375Z,13.37
2022-10-07T03:50:57.756Z,12.97
2022-10-07T03:53:29.693Z,13.39
2022-10-07T03:56:03.206Z,13.39
2022-10-07T03:58:34.183Z,13.33
2022-10-07T04:01:11.500Z,12.95
2022-10-07T04:03:46.130Z,12.79
2022-10-07T04:06:13.035Z,13.12
2022-10-07T04:08:41.192Z,13.12
2022-10-07T04:11:08.578Z,12.94
2022-10-07T04:13:38.521Z,12.81
2022-10-07T04:16:16.877Z,11.90
2022-10-07T04:18:46.086Z,12.51
2022-10-07T04:21:20.663Z,13.02
2022-10-07T04:23:49.921Z,12.56
2022-10-07T04:26:16.937Z,12.63
2022-10-07T04:28:50.270Z,12.99
2022-10-07T04:31:25.232Z,13.23
2022-10-07T04:34:02.205Z,12.79
2022-10-07T04:36:33.813Z,12.85
2022-10-07T04:39:11.951Z,12.65
2022-10-07T04:41:43.381Z,13.17
2022-10-07T04:44:18.518Z,12.77
2022-10-07T04:47:00.609Z,12.91
2022-10-07T04:49:30.041Z,12.88
2022-10-07T04:52:01.543Z,12.02
2022-10-07T04:54:34.160Z,12.24
2022-10-07T04:57:00.847Z,13.09
2022-10-07T04:59:30.040Z,13.08
2022-10-07T05:01:57.899Z,13.10
2022-10-07T05:04:24.825Z,13.09
2022-10-07T05:06:52.996Z,12.67
2022-10-07T05:09:20.122Z,12.37
2022-10-07T05:11:48.872Z,12.04
2022-10-07T05:14:21.394Z,12.35
2022-10-07T05:16:52.156Z,12.37
2022-10-07T05:19:24.058Z,12.63
2022-10-07T05:21:51.804Z,12.73
2022-10-07T05:24:18.933Z,12.15
2022-10-07T05:26:45.654Z,12.36
2022-10-07T05:29:12.350Z,12.94
2022-10-07T05:31:49.263Z,12.70
2022-10-07T05:34:18.442Z,12.86
2022-10-07T05:36:45.470Z,13.02
2022-10-07T05:39:12.680Z,12.64
2022-10-07T05:41:49.390Z,12.48
2022-10-07T05:44:21.884Z,12.43
2022-10-07T05:46:56.166Z,12.56
2022-10-07T05:49:27.799Z,13.01
2022-10-07T05:51:55.291Z,12.13
2022-10-07T05:54:22.644Z,12.19
2022-10-07T05:56:51.614Z,12.33
2022-10-07T05:59:20.649Z,11.85
2022-10-07T06:01:50.075Z,10.97
2022-10-07T06:04:20.660Z,12.61
2022-10-07T06:06:49.148Z,11.43
2022-10-07T06:09:34.335Z,12.59
2022-10-07T06:12:25.532Z,12.68
2022-10-07T06:14:55.878Z,11.86
2022-10-07T06:17:22.762Z,11.75
2022-10-07T06:19:51.541Z,12.40
2022-10-07T06:22:22.716Z,12.94
2022-10-07T06:24:52.155Z,12.76
2022-10-07T06:27:19.396Z,13.22
2022-10-07T06:29:46.133Z,13.73
2022-10-07T06:32:15.409Z,13.01
2022-10-07T06:34:45.202Z,12.78
2022-10-07T06:37:13.267Z,13.30
2022-10-07T06:39:42.488Z,14.19
2022-10-07T06:42:11.799Z,14.33
2022-10-07T06:44:45.319Z,14.30
2022-10-07T06:47:18.423Z,14.37
2022-10-07T06:49:51.661Z,13.67
2022-10-07T06:52:18.608Z,14.75
2022-10-07T06:54:48.097Z,14.88
2022-10-07T06:57:43.613Z,14.47
2022-10-07T07:00:05.197Z,14.74
2022-10-07T07:02:35.151Z,15.06
2022-10-07T07:05:08.574Z,14.99
2022-10-07T07:07:39.052Z,14.31
2022-10-07T07:10:06.448Z,15.33
2022-10-07T07:12:35.343Z,15.36
2022-10-07T07:15:02.289Z,15.36
2022-10-07T07:17:29.064Z,15.29
2022-10-07T07:19:57.138Z,14.89
2022-10-07T07:22:24.083Z,15.16
2022-10-07T07:24:53.386Z,15.58
2022-10-07T07:27:21.509Z,14.51
2022-10-07T07:29:48.240Z,15.74
2022-10-07T07:32:17.480Z,15.07
2022-10-07T07:34:45.757Z,15.66
2022-10-07T07:37:18.642Z,15.63
2022-10-07T07:39:51.766Z,15.30
2022-10-07T07:42:19.036Z,15.55
2022-10-07T07:44:46.837Z,15.48
2022-10-07T07:47:18.504Z,16.48
2022-10-07T07:49:46.548Z,16.11
2022-10-07T07:52:20.544Z,16.44
2022-10-07T07:54:52.510Z,16.54
2022-10-07T07:57:19.647Z,16.97
2022-10-07T07:59:48.946Z,16.28
2022-10-07T08:02:17.928Z,16.92
2022-10-07T08:04:48.587Z,16.49
2022-10-07T08:07:18.124Z,17.38
2022-10-07T08:09:47.142Z,17.44
2022-10-07T08:12:16.032Z,16.80
2022-10-07T08:14:45.169Z,17.21
2022-10-07T08:17:12.990Z,17.75
2022-10-07T08:19:41.978Z,17.78
2022-10-07T08:22:09.494Z,17.84
2022-10-07T08:24:42.296Z,17.52
2022-10-07T08:27:09.002Z,18.07
2022-10-07T08:29:35.822Z,17.37
2022-10-07T08:32:05.059Z,17.59
2022-10-07T08:34:35.081Z,18.30
2022-10-07T08:37:04.421Z,18.16
2022-10-07T08:39:35.917Z,17.88
2022-10-07T08:42:26.546Z,18.22
2022-10-07T08:44:53.429Z,18.25
2022-10-07T08:47:38.650Z,18.65
2022-10-07T08:50:09.874Z,18.78
2022-10-07T08:52:39.271Z,18.85
2022-10-07T08:55:35.673Z,18.96
2022-10-07T08:58:40.903Z,19.02
2022-10-07T09:01:33.899Z,18.94
2022-10-07T09:04:15.098Z,19.07
2022-10-07T09:06:48.013Z,19.17
2022-10-07T09:09:22.568Z,19.05
2022-10-07T09:11:50.451Z,19.13
2022-10-07T09:14:29.389Z,19.13
2022-10-07T09:17:41.390Z,19.07
2022-10-07T09:20:16.758Z,18.62
2022-10-07T09:22:46.665Z,19.11
2022-10-07T09:25:22.826Z,19.42
2022-10-07T09:27:51.474Z,19.24
2022-10-07T09:30:32.486Z,17.78
2022-10-07T09:32:59.279Z,19.82
2022-10-07T09:35:27.418Z,19.93
2022-10-07T09:37:58.907Z,19.16
2022-10-07T09:40:27.958Z,20.13
2022-10-07T09:42:54.898Z,20.35
2022-10-07T09:45:35.054Z,19.99
2022-10-07T09:48:07.698Z,20.83
2022-10-07T09:50:42.189Z,19.35
2022-10-07T09:53:22.575Z,20.94
2022-10-07T09:55:50.753Z,20.47
2022-10-07T09:58:18.808Z,21.26
2022-10-07T10:00:49.742Z,21.24
2022-10-07T10:03:17.221Z,21.15
2022-10-07T10:05:58.762Z,19.58
2022-10-07T10:08:35.945Z,22.06
2022-10-07T10:11:07.519Z,20.09
2022-10-07T10:13:40.897Z,20.81
2022-10-07T10:16:28.786Z,21.82
2022-10-07T10:18:58.915Z,22.11
2022-10-07T10:21:30.636Z,22.38
2022-10-07T10:24:06.049Z,21.19
2022-10-07T10:26:42.026Z,22.55
2022-10-07T10:29:17.883Z,22.88
2022-10-07T10:32:15.675Z,23.15
2022-10-07T10:35:09.961Z,22.79
2022-10-07T10:37:59.564Z,23.81
2022-10-07T10:40:41.559Z,23.75
2022-10-07T10:43:36.055Z,24.37
2022-10-07T10:46:35.303Z,24.75
2022-10-07T10:49:07.018Z,25.13
2022-10-07T10:51:57.461Z,24.70
2022-10-07T10:54:40.283Z,24.67
2022-10-07T10:57:32.463Z,25.23
2022-10-07T11:00:02.181Z,26.20
2022-10-07T11:02:37.199Z,26.37
2022-10-07T11:05:17.363Z,26.50
2022-10-07T11:07:59.093Z,26.64
2022-10-07T11:10:36.922Z,25.93
2022-10-07T11:13:19.185Z,26.77
2022-10-07T11:15:57.174Z,27.04
2022-10-07T11:18:30.150Z,26.55
2022-10-07T11:20:59.397Z,26.99
2022-10-07T11:23:50.408Z,27.02
2022-10-07T11:26:21.451Z,28.01
2022-10-07T11:28:49.782Z,28.00
2022-10-07T11:31:23.524Z,28.05
2022-10-07T11:34:18.580Z,28.34
2022-10-07T11:37:07.545Z,28.40
2022-10-07T11:39:38.010Z,27.89
2022-10-07T11:42:21.694Z,28.37
2022-10-07T11:45:07.460Z,28.55
2022-10-07T11:47:40.352Z,27.71
2022-10-07T11:50:10.039Z,28.95
2022-10-07T11:52:42.130Z,29.15
2022-10-07T11:55:24.705Z,29.37
2022-10-07T11:57:59.391Z,29.55
2022-10-07T12:00:32.897Z,29.33
2022-10-07T12:03:17.702Z,29.47
2022-10-07T12:05:50.613Z,29.60
2022-10-07T12:08:30.362Z,29.75
2022-10-07T12:11:22.890Z,30.08
2022-10-07T12:13:51.224Z,30.43
2022-10-07T12:16:26.231Z,30.67
2022-10-07T12:19:08.128Z,30.89
2022-10-07T12:21:59.623Z,31.22
2022-10-07T12:24:28.053Z,30.74
2022-10-07T12:27:06.171Z,31.04
2022-10-07T12:29:43.564Z,30.87
2022-10-07T12:32:50.424Z,31.12
2022-10-07T12:35:29.475Z,30.87
2022-10-07T12:38:10.698Z,31.55
2022-10-07T12:40:41.528Z,32.17
2022-10-07T12:43:18.144Z,33.14
2022-10-07T12:45:45.069Z,33.19
2022-10-07T12:48:20.488Z,33.63
2022-10-07T12:50:50.562Z,33.71
2022-10-07T12:53:19.193Z,33.34
2022-10-07T12:55:51.458Z,33.35
2022-10-07T12:59:02.645Z,33.31
2022-10-07T13:01:57.477Z,34.92
2022-10-07T13:04:48.394Z,35.13
2022-10-07T13:07:23.432Z,35.69
2022-10-07T13:10:06.296Z,36.08
2022-10-07T13:12:40.926Z,35.50
2022-10-07T13:15:32.189Z,36.15
2022-10-07T13:18:03.774Z,35.74
2022-10-07T13:20:34.159Z,35.54
2022-10-07T13:23:26.753Z,34.55
2022-10-07T13:25:55.485Z,34.61
2022-10-07T13:28:27.142Z,33.92
2022-10-07T13:31:13.162Z,34.61
2022-10-07T13:33:44.663Z,33.87
2022-10-07T13:36:19.115Z,34.96
2022-10-07T13:38:53.651Z,35.18
2022-10-07T13:41:27.345Z,35.29
2022-10-07T13:44:05.935Z,34.31
2022-10-07T13:46:34.502Z,34.80
2022-10-07T13:49:01.697Z,35.03
2022-10-07T13:51:41.144Z,35.11
2022-10-07T13:54:18.556Z,34.63
2022-10-07T13:56:45.803Z,35.32
2022-10-07T13:59:18.234Z,35.48
2022-10-07T14:01:55.218Z,35.20
2022-10-07T14:04:29.351Z,36.21
2022-10-07T14:07:11.346Z,36.43
2022-10-07T14:10:00.146Z,36.29
2022-10-07T14:12:35.389Z,35.78
2022-10-07T14:15:21.051Z,35.65
2022-10-07T14:17:50.990Z,35.23
2022-10-07T14:20:31.666Z,35.23
2022-10-07T14:23:05.842Z,35.24
2022-10-07T14:25:51.116Z,34.29
2022-10-07T14:28:19.518Z,34.75
2022-10-07T14:31:06.022Z,34.32
2022-10-07T14:34:08.880Z,34.17
2022-10-07T14:36:43.409Z,33.47
2022-10-07T14:39:32.693Z,33.48
2022-10-07T14:42:01.857Z,33.54
2022-10-07T14:44:28.639Z,33.54
2022-10-07T14:47:06.576Z,33.42
2022-10-07T14:49:35.662Z,32.68
2022-10-07T14:52:03.832Z,32.38
2022-10-07T14:54:37.941Z,32.09
2022-10-07T14:57:04.654Z,31.80
2022-10-07T14:59:31.365Z,30.73
2022-10-07T15:01:58.039Z,30.42
2022-10-07T15:04:27.847Z,29.94
2022-10-07T15:07:00.539Z,30.24
2022-10-07T15:09:30.253Z,29.17
2022-10-07T15:11:56.974Z,29.22
2022-10-07T15:14:23.814Z,28.90
2022-10-07T15:16:50.545Z,28.54
2022-10-07T15:19:17.210Z,28.61
2022-10-07T15:21:46.224Z,27.92
2022-10-07T15:24:13.003Z,26.98
2022-10-07T15:26:39.856Z,26.64
2022-10-07T15:29:07.960Z,26.19
2022-10-07T15:31:39.416Z,26.75
2022-10-07T15:34:08.367Z,25.72
2022-10-07T15:36:35.046Z,25.39
2022-10-07T15:39:04.415Z,25.87
2022-10-07T15:41:33.053Z,25.04
2022-10-07T15:44:16.361Z,23.76
2022-10-07T15:46:46.642Z,24.57
2022-10-07T15:49:13.977Z,23.48
2022-10-07T15:51:40.930Z,24.33
2022-10-07T15:54:07.859Z,23.48
2022-10-07T15:56:36.852Z,23.83
2022-10-07T15:59:04.177Z,23.29
2022-10-07T16:01:37.780Z,24.12
2022-10-07T16:04:06.030Z,23.59
2022-10-07T16:06:35.548Z,22.90
2022-10-07T16:09:05.375Z,23.32
2022-10-07T16:11:38.183Z,23.09
2022-10-07T16:14:04.907Z,22.65
2022-10-07T16:16:34.082Z,22.84
2022-10-07T16:19:01.384Z,22.85
2022-10-07T16:21:33.224Z,22.39
2022-10-07T16:24:06.895Z,21.97
2022-10-07T16:26:43.710Z,22.41
2022-10-07T16:29:37.271Z,21.10
2022-10-07T16:32:08.573Z,22.15
2022-10-07T16:34:37.916Z,21.92
2022-10-07T16:37:04.727Z,21.25
2022-10-07T16:39:36.078Z,20.90
2022-10-07T16:42:04.962Z,21.74
2022-10-07T16:44:37.832Z,20.91
2022-10-07T16:47:04.688Z,20.80
2022-10-07T16:49:31.806Z,20.89
2022-10-07T16:51:58.767Z,21.36
2022-10-07T16:54:25.711Z,20.75
2022-10-07T16:56:56.440Z,21.22
2022-10-07T16:59:24.782Z,21.14
2022-10-07T17:01:54.976Z,20.63
2022-10-07T17:04:27.252Z,20.31
2022-10-07T17:06:54.219Z,20.33
2022-10-07T17:09:22.009Z,19.88
2022-10-07T17:11:51.117Z,20.28
2022-10-07T17:14:20.339Z,20.70
2022-10-07T17:16:52.697Z,20.14
2022-10-07T17:19:21.229Z,20.54
2022-10-07T17:21:51.144Z,20.48
2022-10-07T17:24:23.674Z,19.76
2022-10-07T17:26:53.149Z,20.38
2022-10-07T17:29:24.970Z,20.32
2022-10-07T17:31:51.968Z,20.18
2022-10-07T17:34:23.033Z,19.74
2022-10-07T17:36:50.554Z,19.72
2022-10-07T17:39:24.364Z,19.52
2022-10-07T17:41:58.518Z,19.24
2022-10-07T17:44:31.973Z,19.29
2022-10-07T17:47:05.805Z,19.23
2022-10-07T17:49:37.627Z,19.95
2022-10-07T17:52:04.211Z,19.89
2022-10-07T17:54:33.253Z,19.42
2022-10-07T17:57:00.034Z,19.79
2022-10-07T17:59:29.378Z,19.36
2022-10-07T18:02:01.007Z,19.50
2022-10-07T18:04:32.243Z,19.23
2022-10-07T18:06:59.187Z,19.09
2022-10-07T18:09:28.311Z,18.97
2022-10-07T18:12:13.702Z,19.51
2022-10-07T18:14:59.002Z,19.19
2022-10-07T18:17:32.391Z,19.04
2022-10-07T18:20:00.243Z,18.55
2022-10-07T18:22:27.271Z,18.89
2022-10-07T18:24:57.179Z,18.58
2022-10-07T18:27:31.247Z,18.79
2022-10-07T18:29:58.371Z,18.16
2022-10-07T18:32:25.547Z,18.75
2022-10-07T18:34:52.507Z,19.04
2022-10-07T18:37:21.274Z,18.87
2022-10-07T18:39:47.945Z,18.97
2022-10-07T18:42:14.699Z,18.66
2022-10-07T18:44:43.679Z,18.11
2022-10-07T18:47:10.422Z,18.63
2022-10-07T18:49:39.448Z,18.14
2022-10-07T18:52:11.834Z,18.20
2022-10-07T18:54:40.877Z,18.52
2022-10-07T18:57:09.790Z,18.68
2022-10-07T18:59:41.550Z,18.64
2022-10-07T19:02:11.497Z,18.60
2022-10-07T19:04:43.307Z,18.54
2022-10-07T19:07:09.983Z,18.50
2022-10-07T19:09:39.041Z,17.76
2022-10-07T19:12:28.176Z,18.30
2022-10-07T19:14:57.861Z,18.22
2022-10-07T19:17:26.975Z,15.32
2022-10-07T19:19:53.658Z,18.08
2022-10-07T19:22:23.057Z,17.76
2022-10-07T19:25:08.738Z,17.44
2022-10-07T19:27:37.886Z,17.46
2022-10-07T19:30:05.439Z,17.92
2022-10-07T19:32:33.572Z,17.88
2022-10-07T19:35:00.336Z,17.53
2022-10-07T19:37:27.102Z,17.41
2022-10-07T19:39:53.798Z,17.24
2022-10-07T19:42:20.576Z,16.83
2022-10-07T19:44:48.492Z,16.47
2022-10-07T19:47:15.539Z,17.18
2022-10-07T19:49:45.283Z,16.94
2022-10-07T19:52:12.116Z,17.20
2022-10-07T19:54:45.397Z,15.82
2022-10-07T19:57:12.552Z,17.30
2022-10-07T19:59:41.646Z,16.82
2022-10-07T20:02:08.849Z,17.22
2022-10-07T20:04:44.223Z,16.74
2022-10-07T20:07:13.432Z,16.08
2022-10-07T20:09:40.228Z,16.39
2022-10-07T20:12:09.467Z,16.84
2022-10-07T20:14:36.156Z,17.03
2022-10-07T20:17:08.074Z,17.04
2022-10-07T20:19:35.521Z,16.82
2022-10-07T20:22:03.710Z,17.05
2022-10-07T20:24:30.413Z,16.84
2022-10-07T20:27:25.918Z,17.04
2022-10-07T20:29:58.269Z,16.47
2022-10-07T20:33:09.263Z,13.60
2022-10-07T20:36:00.557Z,16.82
2022-10-07T20:46:02.021Z,15.34
2022-10-07T20:52:17.116Z,15.01
2022-10-07T20:54:52.370Z,15.83
2022-10-07T20:57:24.752Z,16.58
2022-10-07T20:59:51.661Z,16.55
2022-10-07T21:02:22.213Z,16.53
2022-10-07T21:04:51.562Z,16.48
2022-10-07T21:07:18.533Z,16.43
2022-10-07T21:09:46.131Z,16.40
2022-10-07T21:12:14.944Z,16.39
2022-10-07T21:14:44.933Z,16.27
2022-10-07T21:17:12.123Z,15.87
2022-10-07T21:19:39.067Z,16.35
2022-10-07T21:22:08.210Z,16.20
2022-10-07T21:24:34.987Z,16.21
2022-10-07T21:27:06.617Z,15.60
2022-10-07T21:29:37.541Z,15.54
2022-10-07T21:32:09.729Z,16.12
2022-10-07T21:34:36.908Z,16.06
2022-10-07T21:37:06.514Z,16.09
2022-10-07T21:39:33.231Z,15.13
2022-10-07T21:42:02.150Z,15.67
2022-10-07T21:44:29.427Z,15.67
2022-10-07T21:46:59.721Z,15.29
2022-10-07T21:49:28.680Z,15.27
2022-10-07T21:51:57.597Z,15.07
2022-10-07T21:54:24.364Z,15.61
2022-10-07T21:56:51.094Z,15.88
2022-10-07T21:59:17.787Z,15.64
2022-10-07T22:01:46.889Z,15.53
2022-10-07T22:04:16.854Z,15.85
2022-10-07T22:07:02.632Z,15.82
2022-10-07T22:09:29.332Z,15.76
2022-10-07T22:11:57.256Z,15.47
2022-10-07T22:14:43.917Z,15.60
2022-10-07T22:17:14.247Z,15.23
2022-10-07T22:19:41.013Z,15.50
2022-10-07T22:22:07.742Z,15.61
2022-10-07T22:24:39.106Z,15.58
2022-10-07T22:27:07.894Z,14.91
2022-10-07T22:29:39.341Z,15.56
2022-10-07T22:32:08.399Z,15.54
2022-10-07T22:34:55.778Z,15.52
2022-10-07T22:37:22.435Z,15.44
2022-10-07T22:39:49.093Z,15.16
2022-10-07T22:42:20.500Z,15.27
2022-10-07T22:44:49.449Z,15.23
2022-10-07T22:47:16.371Z,15.23
2022-10-07T22:49:43.013Z,15.23
2022-10-07T22:52:11.218Z,14.96
2022-10-07T22:54:40.469Z,15.23
2022-10-07T22:57:07.868Z,15.22
2022-10-07T22:59:34.590Z,15.04
2022-10-07T23:02:03.721Z,15.17
2022-10-07T23:04:32.777Z,15.13
2022-10-07T23:06:59.474Z,15.11
2022-10-07T23:09:26.152Z,14.70
2022-10-07T23:11:52.922Z,13.36
2022-10-07T23:14:21.779Z,14.95
2022-10-07T23:16:48.487Z,14.66
2022-10-07T23:19:17.767Z,14.59
2022-10-07T23:21:44.728Z,14.89
2022-10-07T23:24:13.898Z,13.77
2022-10-07T23:26:46.072Z,14.64
2022-10-07T23:29:13.045Z,14.19
2022-10-07T23:31:39.764Z,14.80
2022-10-07T23:34:06.583Z,14.04
2022-10-07T23:36:35.214Z,14.77
2022-10-07T23:39:04.002Z,14.24
2022-10-07T23:41:33.211Z,14.40
2022-10-07T23:44:03.153Z,14.62
2022-10-07T23:46:33.172Z,14.14
2022-10-07T23:49:00.579Z,14.57
2022-10-07T23:51:27.944Z,14.00
2022-10-07T23:53:59.085Z,14.38
2022-10-07T23:56:26.711Z,14.37
2022-10-07T23:58:53.372Z,13.80
